sensor_id;sensor_type;location;lat;lon;timestamp;P1;durP1;ratioP1;P2;durP2;ratioP2
44462;SDS011;30170;52.190;8.702;2022-09-14T00:00:57;2.63;;;1.80;;
44462;SDS011;30170;52.190;8.702;2022-09-14T00:03:44;2.08;;;1.20;;
44462;SDS011;30170;52.190;8.702;2022-09-14T00:06:12;1.75;;;1.00;;
44462;SDS011;30170;52.190;8.702;2022-09-14T00:08:40;1.95;;;1.10;;
44462;SDS011;30170;52.190;8.702;2022-09-14T00:11:09;1.45;;;1.00;;
44462;SDS011;30170;52.190;8.702;2022-09-14T00:13:39;1.77;;;1.20;;
44462;SDS011;30170;52.190;8.702;2022-09-14T00:16:12;2.42;;;1.42;;
44462;SDS011;30170;52.190;8.702;2022-09-14T00:18:44;2.08;;;1.40;;
44462;SDS011;30170;52.190;8.702;2022-09-14T00:21:15;4.35;;;1.20;;
44462;SDS011;30170;52.190;8.702;2022-09-14T00:23:41;1.55;;;1.05;;
44462;SDS011;30170;52.190;8.702;2022-09-14T00:26:10;1.67;;;1.00;;
44462;SDS011;30170;52.190;8.702;2022-09-14T00:28:40;2.55;;;1.55;;
44462;SDS011;30170;52.190;8.702;2022-09-14T00:31:17;1.95;;;1.30;;
44462;SDS011;30170;52.190;8.702;2022-09-14T00:33:45;2.67;;;1.20;;
44462;SDS011;30170;52.190;8.702;2022-09-14T00:36:14;1.65;;;1.10;;
44462;SDS011;30170;52.190;8.702;2022-09-14T00:38:46;1.88;;;1.20;;
44462;SDS011;30170;52.190;8.702;2022-09-14T00:41:14;3.35;;;1.30;;
44462;SDS011;30170;52.190;8.702;2022-09-14T00:46:23;2.05;;;1.13;;
44462;SDS011;30170;52.190;8.702;2022-09-14T00:48:51;2.78;;;1.20;;
44462;SDS011;30170;52.190;8.702;2022-09-14T00:51:20;2.95;;;1.00;;
44462;SDS011;30170;52.190;8.702;2022-09-14T00:53:47;2.72;;;1.15;;
44462;SDS011;30170;52.190;8.702;2022-09-14T00:56:14;1.60;;;0.90;;
44462;SDS011;30170;52.190;8.702;2022-09-14T00:58:42;2.22;;;1.10;;
44462;SDS011;30170;52.190;8.702;2022-09-14T01:01:11;2.28;;;1.10;;
44462;SDS011;30170;52.190;8.702;2022-09-14T01:03:38;2.50;;;1.48;;
44462;SDS011;30170;52.190;8.702;2022-09-14T01:22:15;1.35;;;1.00;;
44462;SDS011;30170;52.190;8.702;2022-09-14T01:24:51;2.47;;;1.10;;
44462;SDS011;30170;52.190;8.702;2022-09-14T01:30:11;3.65;;;1.30;;
44462;SDS011;30170;52.190;8.702;2022-09-14T01:37:54;2.00;;;1.05;;
44462;SDS011;30170;52.190;8.702;2022-09-14T01:43:01;1.55;;;0.98;;
44462;SDS011;30170;52.190;8.702;2022-09-14T01:45:38;2.00;;;1.13;;
44462;SDS011;30170;52.190;8.702;2022-09-14T01:48:10;2.60;;;1.25;;
44462;SDS011;30170;52.190;8.702;2022-09-14T01:50:41;2.30;;;1.30;;
44462;SDS011;30170;52.190;8.702;2022-09-14T01:55:51;2.13;;;0.93;;
44462;SDS011;30170;52.190;8.702;2022-09-14T01:58:26;2.38;;;1.10;;
44462;SDS011;30170;52.190;8.702;2022-09-14T02:00:56;2.88;;;1.17;;
44462;SDS011;30170;52.190;8.702;2022-09-14T02:03:29;1.90;;;1.17;;
44462;SDS011;30170;52.190;8.702;2022-09-14T02:06:07;1.70;;;1.20;;
44462;SDS011;30170;52.190;8.702;2022-09-14T02:08:42;2.70;;;1.13;;
44462;SDS011;30170;52.190;8.702;2022-09-14T02:11:08;2.03;;;1.08;;
44462;SDS011;30170;52.190;8.702;2022-09-14T02:13:35;1.70;;;1.10;;
44462;SDS011;30170;52.190;8.702;2022-09-14T02:16:02;1.60;;;1.10;;
44462;SDS011;30170;52.190;8.702;2022-09-14T02:18:29;2.47;;;1.00;;
44462;SDS011;30170;52.190;8.702;2022-09-14T02:20:58;1.75;;;1.10;;
44462;SDS011;30170;52.190;8.702;2022-09-14T02:23:28;1.77;;;1.00;;
44462;SDS011;30170;52.190;8.702;2022-09-14T02:25:55;2.38;;;1.20;;
44462;SDS011;30170;52.190;8.702;2022-09-14T02:28:23;1.60;;;1.15;;
44462;SDS011;30170;52.190;8.702;2022-09-14T02:30:54;1.92;;;1.20;;
44462;SDS011;30170;52.190;8.702;2022-09-14T02:33:33;2.47;;;1.00;;
44462;SDS011;30170;52.190;8.702;2022-09-14T02:36:15;2.95;;;1.27;;
44462;SDS011;30170;52.190;8.702;2022-09-14T02:44:25;2.27;;;1.13;;
44462;SDS011;30170;52.190;8.702;2022-09-14T02:47:04;2.92;;;1.10;;
44462;SDS011;30170;52.190;8.702;2022-09-14T02:50:31;3.38;;;1.30;;
44462;SDS011;30170;52.190;8.702;2022-09-14T02:52:32;2.13;;;1.30;;
44462;SDS011;30170;52.190;8.702;2022-09-14T02:55:11;1.38;;;0.90;;
44462;SDS011;30170;52.190;8.702;2022-09-14T03:00:29;1.85;;;0.88;;
44462;SDS011;30170;52.190;8.702;2022-09-14T03:02:57;1.17;;;0.90;;
44462;SDS011;30170;52.190;8.702;2022-09-14T03:05:24;2.55;;;1.20;;
44462;SDS011;30170;52.190;8.702;2022-09-14T03:07:51;1.52;;;1.00;;
44462;SDS011;30170;52.190;8.702;2022-09-14T03:10:18;3.13;;;1.40;;
44462;SDS011;30170;52.190;8.702;2022-09-14T03:12:45;2.05;;;1.10;;
44462;SDS011;30170;52.190;8.702;2022-09-14T03:15:12;2.22;;;1.10;;
44462;SDS011;30170;52.190;8.702;2022-09-14T03:17:41;2.83;;;1.20;;
44462;SDS011;30170;52.190;8.702;2022-09-14T03:20:10;1.75;;;1.25;;
44462;SDS011;30170;52.190;8.702;2022-09-14T03:22:38;2.78;;;1.58;;
44462;SDS011;30170;52.190;8.702;2022-09-14T03:25:05;2.35;;;1.10;;
44462;SDS011;30170;52.190;8.702;2022-09-14T03:27:32;2.75;;;1.45;;
44462;SDS011;30170;52.190;8.702;2022-09-14T03:29:59;2.13;;;1.30;;
44462;SDS011;30170;52.190;8.702;2022-09-14T03:32:26;2.15;;;0.88;;
44462;SDS011;30170;52.190;8.702;2022-09-14T03:34:52;1.85;;;1.20;;
44462;SDS011;30170;52.190;8.702;2022-09-14T03:37:19;2.63;;;1.13;;
44462;SDS011;30170;52.190;8.702;2022-09-14T03:39:46;2.20;;;1.27;;
44462;SDS011;30170;52.190;8.702;2022-09-14T03:42:13;2.55;;;1.20;;
44462;SDS011;30170;52.190;8.702;2022-09-14T03:44:39;1.63;;;1.10;;
44462;SDS011;30170;52.190;8.702;2022-09-14T03:47:06;1.52;;;1.05;;
44462;SDS011;30170;52.190;8.702;2022-09-14T03:49:33;1.48;;;1.00;;
44462;SDS011;30170;52.190;8.702;2022-09-14T03:52:00;3.72;;;1.60;;
44462;SDS011;30170;52.190;8.702;2022-09-14T03:54:28;2.95;;;1.33;;
44462;SDS011;30170;52.190;8.702;2022-09-14T03:56:55;2.10;;;1.13;;
44462;SDS011;30170;52.190;8.702;2022-09-14T03:59:22;4.70;;;1.13;;
44462;SDS011;30170;52.190;8.702;2022-09-14T04:01:48;3.88;;;1.10;;
44462;SDS011;30170;52.190;8.702;2022-09-14T04:04:15;1.63;;;1.00;;
44462;SDS011;30170;52.190;8.702;2022-09-14T04:06:42;1.85;;;1.20;;
44462;SDS011;30170;52.190;8.702;2022-09-14T04:09:09;2.60;;;1.30;;
44462;SDS011;30170;52.190;8.702;2022-09-14T04:11:36;3.30;;;1.25;;
44462;SDS011;30170;52.190;8.702;2022-09-14T04:14:03;2.22;;;1.20;;
44462;SDS011;30170;52.190;8.702;2022-09-14T04:16:31;1.95;;;1.20;;
44462;SDS011;30170;52.190;8.702;2022-09-14T04:18:57;2.20;;;1.20;;
44462;SDS011;30170;52.190;8.702;2022-09-14T04:21:24;1.70;;;1.10;;
44462;SDS011;30170;52.190;8.702;2022-09-14T04:23:52;2.10;;;1.13;;
44462;SDS011;30170;52.190;8.702;2022-09-14T04:26:40;3.20;;;1.15;;
44462;SDS011;30170;52.190;8.702;2022-09-14T04:29:08;2.97;;;1.13;;
44462;SDS011;30170;52.190;8.702;2022-09-14T04:31:36;3.42;;;1.30;;
44462;SDS011;30170;52.190;8.702;2022-09-14T04:34:03;2.78;;;1.23;;
44462;SDS011;30170;52.190;8.702;2022-09-14T04:36:30;3.00;;;1.33;;
44462;SDS011;30170;52.190;8.702;2022-09-14T04:38:58;1.90;;;1.20;;
44462;SDS011;30170;52.190;8.702;2022-09-14T04:41:26;1.98;;;1.20;;
44462;SDS011;30170;52.190;8.702;2022-09-14T04:43:54;2.60;;;1.02;;
44462;SDS011;30170;52.190;8.702;2022-09-14T04:46:23;2.38;;;1.17;;
44462;SDS011;30170;52.190;8.702;2022-09-14T04:48:55;1.90;;;1.30;;
44462;SDS011;30170;52.190;8.702;2022-09-14T04:51:22;3.92;;;1.20;;
44462;SDS011;30170;52.190;8.702;2022-09-14T04:53:53;2.90;;;1.20;;
44462;SDS011;30170;52.190;8.702;2022-09-14T04:56:25;4.75;;;1.17;;
44462;SDS011;30170;52.190;8.702;2022-09-14T04:58:56;3.30;;;1.60;;
44462;SDS011;30170;52.190;8.702;2022-09-14T05:01:25;1.67;;;1.17;;
44462;SDS011;30170;52.190;8.702;2022-09-14T05:03:54;2.28;;;1.20;;
44462;SDS011;30170;52.190;8.702;2022-09-14T05:06:22;3.10;;;1.25;;
44462;SDS011;30170;52.190;8.702;2022-09-14T05:08:52;2.13;;;1.20;;
44462;SDS011;30170;52.190;8.702;2022-09-14T05:11:20;2.45;;;1.05;;
44462;SDS011;30170;52.190;8.702;2022-09-14T05:13:49;3.95;;;1.40;;
44462;SDS011;30170;52.190;8.702;2022-09-14T05:16:18;1.95;;;1.20;;
44462;SDS011;30170;52.190;8.702;2022-09-14T05:18:46;1.58;;;1.20;;
44462;SDS011;30170;52.190;8.702;2022-09-14T05:21:15;2.58;;;1.60;;
44462;SDS011;30170;52.190;8.702;2022-09-14T05:23:44;3.35;;;1.20;;
44462;SDS011;30170;52.190;8.702;2022-09-14T05:26:11;2.08;;;1.23;;
44462;SDS011;30170;52.190;8.702;2022-09-14T05:28:39;4.60;;;1.25;;
44462;SDS011;30170;52.190;8.702;2022-09-14T05:31:07;2.83;;;1.50;;
44462;SDS011;30170;52.190;8.702;2022-09-14T05:33:35;2.25;;;1.33;;
44462;SDS011;30170;52.190;8.702;2022-09-14T05:36:03;3.35;;;1.30;;
44462;SDS011;30170;52.190;8.702;2022-09-14T05:38:32;1.67;;;1.20;;
44462;SDS011;30170;52.190;8.702;2022-09-14T05:41:00;3.20;;;1.30;;
44462;SDS011;30170;52.190;8.702;2022-09-14T05:43:27;2.63;;;1.15;;
44462;SDS011;30170;52.190;8.702;2022-09-14T05:45:55;2.60;;;1.45;;
44462;SDS011;30170;52.190;8.702;2022-09-14T05:48:21;3.13;;;1.20;;
44462;SDS011;30170;52.190;8.702;2022-09-14T05:50:48;2.05;;;1.20;;
44462;SDS011;30170;52.190;8.702;2022-09-14T05:53:24;2.60;;;1.58;;
44462;SDS011;30170;52.190;8.702;2022-09-14T05:58:35;3.05;;;1.48;;
44462;SDS011;30170;52.190;8.702;2022-09-14T06:01:06;2.95;;;1.33;;
44462;SDS011;30170;52.190;8.702;2022-09-14T06:03:34;2.88;;;1.35;;
44462;SDS011;30170;52.190;8.702;2022-09-14T06:06:02;3.60;;;1.30;;
44462;SDS011;30170;52.190;8.702;2022-09-14T06:08:30;2.00;;;1.20;;
44462;SDS011;30170;52.190;8.702;2022-09-14T06:11:01;2.83;;;1.23;;
44462;SDS011;30170;52.190;8.702;2022-09-14T06:13:36;1.77;;;1.23;;
44462;SDS011;30170;52.190;8.702;2022-09-14T06:16:09;2.58;;;1.50;;
44462;SDS011;30170;52.190;8.702;2022-09-14T06:18:38;2.67;;;1.42;;
44462;SDS011;30170;52.190;8.702;2022-09-14T06:21:06;3.95;;;1.83;;
44462;SDS011;30170;52.190;8.702;2022-09-14T06:23:34;4.15;;;1.80;;
44462;SDS011;30170;52.190;8.702;2022-09-14T06:26:02;3.70;;;1.30;;
44462;SDS011;30170;52.190;8.702;2022-09-14T06:28:30;3.25;;;1.73;;
44462;SDS011;30170;52.190;8.702;2022-09-14T06:30:58;3.75;;;1.35;;
44462;SDS011;30170;52.190;8.702;2022-09-14T06:33:25;3.10;;;1.80;;
44462;SDS011;30170;52.190;8.702;2022-09-14T06:36:05;4.72;;;1.75;;
44462;SDS011;30170;52.190;8.702;2022-09-14T06:38:34;4.50;;;1.80;;
44462;SDS011;30170;52.190;8.702;2022-09-14T06:41:03;5.05;;;1.80;;
44462;SDS011;30170;52.190;8.702;2022-09-14T06:43:32;7.47;;;2.40;;
44462;SDS011;30170;52.190;8.702;2022-09-14T06:46:02;5.72;;;1.98;;
44462;SDS011;30170;52.190;8.702;2022-09-14T06:48:38;3.08;;;1.75;;
44462;SDS011;30170;52.190;8.702;2022-09-14T06:51:15;5.85;;;2.22;;
44462;SDS011;30170;52.190;8.702;2022-09-14T06:53:47;6.13;;;2.10;;
44462;SDS011;30170;52.190;8.702;2022-09-14T06:56:15;5.57;;;1.90;;
44462;SDS011;30170;52.190;8.702;2022-09-14T06:58:43;3.65;;;2.28;;
44462;SDS011;30170;52.190;8.702;2022-09-14T07:01:10;4.20;;;1.77;;
44462;SDS011;30170;52.190;8.702;2022-09-14T07:03:40;3.13;;;1.80;;
44462;SDS011;30170;52.190;8.702;2022-09-14T07:06:13;5.45;;;2.13;;
44462;SDS011;30170;52.190;8.702;2022-09-14T07:08:42;4.43;;;1.63;;
44462;SDS011;30170;52.190;8.702;2022-09-14T07:11:09;4.60;;;1.90;;
44462;SDS011;30170;52.190;8.702;2022-09-14T07:13:37;4.65;;;2.13;;
44462;SDS011;30170;52.190;8.702;2022-09-14T07:16:05;5.28;;;2.13;;
44462;SDS011;30170;52.190;8.702;2022-09-14T07:18:33;5.55;;;1.83;;
44462;SDS011;30170;52.190;8.702;2022-09-14T07:21:09;5.15;;;1.73;;
44462;SDS011;30170;52.190;8.702;2022-09-14T07:23:38;3.67;;;1.80;;
44462;SDS011;30170;52.190;8.702;2022-09-14T07:26:28;9.20;;;1.88;;
44462;SDS011;30170;52.190;8.702;2022-09-14T07:28:58;4.00;;;2.20;;
44462;SDS011;30170;52.190;8.702;2022-09-14T07:31:31;4.97;;;2.10;;
44462;SDS011;30170;52.190;8.702;2022-09-14T07:34:00;4.80;;;1.95;;
44462;SDS011;30170;52.190;8.702;2022-09-14T07:36:29;18.13;;;2.40;;
44462;SDS011;30170;52.190;8.702;2022-09-14T07:39:00;8.95;;;2.20;;
44462;SDS011;30170;52.190;8.702;2022-09-14T07:41:30;4.00;;;2.05;;
44462;SDS011;30170;52.190;8.702;2022-09-14T07:43:59;7.10;;;2.60;;
44462;SDS011;30170;52.190;8.702;2022-09-14T07:46:28;4.90;;;2.00;;
44462;SDS011;30170;52.190;8.702;2022-09-14T07:48:59;5.63;;;2.08;;
44462;SDS011;30170;52.190;8.702;2022-09-14T07:51:27;8.30;;;2.25;;
44462;SDS011;30170;52.190;8.702;2022-09-14T07:53:55;3.97;;;2.00;;
44462;SDS011;30170;52.190;8.702;2022-09-14T07:56:23;5.90;;;2.08;;
44462;SDS011;30170;52.190;8.702;2022-09-14T07:58:54;4.90;;;1.85;;
44462;SDS011;30170;52.190;8.702;2022-09-14T08:01:43;3.63;;;2.15;;
44462;SDS011;30170;52.190;8.702;2022-09-14T08:04:11;7.25;;;1.95;;
44462;SDS011;30170;52.190;8.702;2022-09-14T08:06:38;5.15;;;2.25;;
44462;SDS011;30170;52.190;8.702;2022-09-14T08:09:05;6.68;;;2.00;;
44462;SDS011;30170;52.190;8.702;2022-09-14T08:11:36;5.10;;;2.08;;
44462;SDS011;30170;52.190;8.702;2022-09-14T08:14:05;5.25;;;1.80;;
44462;SDS011;30170;52.190;8.702;2022-09-14T08:16:35;6.28;;;1.92;;
44462;SDS011;30170;52.190;8.702;2022-09-14T08:19:05;5.05;;;1.92;;
44462;SDS011;30170;52.190;8.702;2022-09-14T08:21:36;4.65;;;1.90;;
44462;SDS011;30170;52.190;8.702;2022-09-14T08:24:05;3.90;;;1.75;;
44462;SDS011;30170;52.190;8.702;2022-09-14T08:26:32;4.97;;;1.60;;
44462;SDS011;30170;52.190;8.702;2022-09-14T08:29:02;4.82;;;1.52;;
44462;SDS011;30170;52.190;8.702;2022-09-14T08:31:30;5.85;;;1.70;;
44462;SDS011;30170;52.190;8.702;2022-09-14T08:34:02;2.67;;;1.55;;
44462;SDS011;30170;52.190;8.702;2022-09-14T08:36:30;5.68;;;1.48;;
44462;SDS011;30170;52.190;8.702;2022-09-14T08:38:59;3.65;;;1.60;;
44462;SDS011;30170;52.190;8.702;2022-09-14T08:41:27;3.40;;;1.40;;
44462;SDS011;30170;52.190;8.702;2022-09-14T08:49:32;3.97;;;1.55;;
44462;SDS011;30170;52.190;8.702;2022-09-14T08:52:09;5.70;;;1.40;;
44462;SDS011;30170;52.190;8.702;2022-09-14T08:54:49;5.03;;;1.42;;
44462;SDS011;30170;52.190;8.702;2022-09-14T08:57:39;7.63;;;1.98;;
44462;SDS011;30170;52.190;8.702;2022-09-14T09:00:09;6.20;;;1.80;;
44462;SDS011;30170;52.190;8.702;2022-09-14T09:07:59;2.97;;;1.60;;
44462;SDS011;30170;52.190;8.702;2022-09-14T09:10:45;3.88;;;1.30;;
44462;SDS011;30170;52.190;8.702;2022-09-14T09:13:14;3.80;;;1.52;;
44462;SDS011;30170;52.190;8.702;2022-09-14T09:15:56;4.35;;;1.30;;
44462;SDS011;30170;52.190;8.702;2022-09-14T09:21:14;4.65;;;1.30;;
44462;SDS011;30170;52.190;8.702;2022-09-14T09:23:43;5.07;;;1.40;;
44462;SDS011;30170;52.190;8.702;2022-09-14T09:28:57;4.75;;;1.40;;
44462;SDS011;30170;52.190;8.702;2022-09-14T09:31:30;5.80;;;1.67;;
44462;SDS011;30170;52.190;8.702;2022-09-14T09:34:03;5.43;;;1.83;;
44462;SDS011;30170;52.190;8.702;2022-09-14T09:36:34;3.55;;;1.40;;
44462;SDS011;30170;52.190;8.702;2022-09-14T09:39:04;4.55;;;1.40;;
44462;SDS011;30170;52.190;8.702;2022-09-14T09:42:15;3.78;;;1.42;;
44462;SDS011;30170;52.190;8.702;2022-09-14T09:45:01;3.03;;;1.15;;
44462;SDS011;30170;52.190;8.702;2022-09-14T09:47:32;5.53;;;1.25;;
44462;SDS011;30170;52.190;8.702;2022-09-14T09:50:02;3.60;;;1.50;;
44462;SDS011;30170;52.190;8.702;2022-09-14T09:52:32;4.10;;;1.25;;
44462;SDS011;30170;52.190;8.702;2022-09-14T09:54:59;4.78;;;1.33;;
44462;SDS011;30170;52.190;8.702;2022-09-14T09:57:30;5.32;;;1.83;;
44462;SDS011;30170;52.190;8.702;2022-09-14T10:02:45;8.57;;;2.03;;
44462;SDS011;30170;52.190;8.702;2022-09-14T10:07:47;2.88;;;1.40;;
44462;SDS011;30170;52.190;8.702;2022-09-14T10:10:20;4.82;;;2.83;;
44462;SDS011;30170;52.190;8.702;2022-09-14T10:12:53;5.75;;;1.70;;
44462;SDS011;30170;52.190;8.702;2022-09-14T10:15:31;7.13;;;1.50;;
44462;SDS011;30170;52.190;8.702;2022-09-14T10:20:26;4.53;;;1.45;;
44462;SDS011;30170;52.190;8.702;2022-09-14T10:22:53;4.35;;;1.40;;
44462;SDS011;30170;52.190;8.702;2022-09-14T10:25:21;5.88;;;1.60;;
44462;SDS011;30170;52.190;8.702;2022-09-14T10:30:21;5.10;;;1.40;;
44462;SDS011;30170;52.190;8.702;2022-09-14T10:32:58;3.25;;;1.20;;
44462;SDS011;30170;52.190;8.702;2022-09-14T10:47:09;6.97;;;1.85;;
44462;SDS011;30170;52.190;8.702;2022-09-14T10:55:56;4.35;;;1.73;;
44462;SDS011;30170;52.190;8.702;2022-09-14T11:01:32;4.47;;;1.33;;
44462;SDS011;30170;52.190;8.702;2022-09-14T11:09:48;5.35;;;1.38;;
44462;SDS011;30170;52.190;8.702;2022-09-14T11:12:41;8.90;;;1.80;;
44462;SDS011;30170;52.190;8.702;2022-09-14T11:23:42;4.90;;;1.35;;
44462;SDS011;30170;52.190;8.702;2022-09-14T11:28:51;5.85;;;1.40;;
44462;SDS011;30170;52.190;8.702;2022-09-14T11:31:51;5.30;;;1.27;;
44462;SDS011;30170;52.190;8.702;2022-09-14T11:34:48;4.72;;;1.40;;
44462;SDS011;30170;52.190;8.702;2022-09-14T11:37:24;4.40;;;1.40;;
44462;SDS011;30170;52.190;8.702;2022-09-14T11:40:06;5.15;;;1.60;;
44462;SDS011;30170;52.190;8.702;2022-09-14T11:42:38;4.78;;;1.60;;
44462;SDS011;30170;52.190;8.702;2022-09-14T11:45:18;3.70;;;1.50;;
44462;SDS011;30170;52.190;8.702;2022-09-14T11:47:57;4.97;;;1.38;;
44462;SDS011;30170;52.190;8.702;2022-09-14T11:51:14;8.05;;;1.80;;
44462;SDS011;30170;52.190;8.702;2022-09-14T11:53:47;3.63;;;1.50;;
44462;SDS011;30170;52.190;8.702;2022-09-14T11:56:36;1.40;;;1.00;;
44462;SDS011;30170;52.190;8.702;2022-09-14T11:59:04;8.20;;;1.52;;
44462;SDS011;30170;52.190;8.702;2022-09-14T12:01:41;3.03;;;1.02;;
44462;SDS011;30170;52.190;8.702;2022-09-14T12:04:12;5.93;;;1.42;;
44462;SDS011;30170;52.190;8.702;2022-09-14T12:06:41;4.65;;;1.42;;
44462;SDS011;30170;52.190;8.702;2022-09-14T12:11:43;6.75;;;1.60;;
44462;SDS011;30170;52.190;8.702;2022-09-14T12:25:38;3.75;;;1.27;;
44462;SDS011;30170;52.190;8.702;2022-09-14T12:36:03;4.30;;;1.50;;
44462;SDS011;30170;52.190;8.702;2022-09-14T13:02:30;2.72;;;1.42;;
44462;SDS011;30170;52.190;8.702;2022-09-14T13:05:13;5.25;;;1.30;;
44462;SDS011;30170;52.190;8.702;2022-09-14T13:07:43;5.22;;;1.67;;
44462;SDS011;30170;52.190;8.702;2022-09-14T13:10:29;5.60;;;1.50;;
44462;SDS011;30170;52.190;8.702;2022-09-14T13:13:02;3.05;;;1.35;;
44462;SDS011;30170;52.190;8.702;2022-09-14T13:15:51;4.80;;;1.40;;
44462;SDS011;30170;52.190;8.702;2022-09-14T13:20:49;4.30;;;1.20;;
44462;SDS011;30170;52.190;8.702;2022-09-14T13:23:20;6.15;;;1.40;;
44462;SDS011;30170;52.190;8.702;2022-09-14T13:25:53;5.70;;;1.45;;
44462;SDS011;30170;52.190;8.702;2022-09-14T13:28:21;5.25;;;1.90;;
44462;SDS011;30170;52.190;8.702;2022-09-14T13:30:55;3.97;;;1.30;;
44462;SDS011;30170;52.190;8.702;2022-09-14T13:35:52;6.13;;;1.33;;
44462;SDS011;30170;52.190;8.702;2022-09-14T13:38:24;3.08;;;1.10;;
44462;SDS011;30170;52.190;8.702;2022-09-14T13:40:55;2.83;;;1.30;;
44462;SDS011;30170;52.190;8.702;2022-09-14T13:43:29;3.00;;;1.20;;
44462;SDS011;30170;52.190;8.702;2022-09-14T13:45:56;3.60;;;1.23;;
44462;SDS011;30170;52.190;8.702;2022-09-14T13:48:23;5.25;;;1.30;;
44462;SDS011;30170;52.190;8.702;2022-09-14T13:50:50;6.05;;;1.20;;
44462;SDS011;30170;52.190;8.702;2022-09-14T13:56:15;5.43;;;1.48;;
44462;SDS011;30170;52.190;8.702;2022-09-14T13:58:43;3.67;;;1.40;;
44462;SDS011;30170;52.190;8.702;2022-09-14T14:01:10;3.25;;;1.40;;
44462;SDS011;30170;52.190;8.702;2022-09-14T14:03:46;4.13;;;1.23;;
44462;SDS011;30170;52.190;8.702;2022-09-14T14:08:56;6.13;;;1.58;;
44462;SDS011;30170;52.190;8.702;2022-09-14T14:11:36;5.67;;;1.43;;
44462;SDS011;30170;52.190;8.702;2022-09-14T14:14:17;2.70;;;1.30;;
44462;SDS011;30170;52.190;8.702;2022-09-14T14:19:47;6.88;;;1.48;;
44462;SDS011;30170;52.190;8.702;2022-09-14T14:22:17;4.40;;;1.40;;
44462;SDS011;30170;52.190;8.702;2022-09-14T14:24:45;2.60;;;1.15;;
44462;SDS011;30170;52.190;8.702;2022-09-14T14:27:34;4.07;;;1.33;;
44462;SDS011;30170;52.190;8.702;2022-09-14T14:30:10;2.90;;;1.30;;
44462;SDS011;30170;52.190;8.702;2022-09-14T14:32:38;9.52;;;1.80;;
44462;SDS011;30170;52.190;8.702;2022-09-14T14:35:14;3.67;;;1.30;;
44462;SDS011;30170;52.190;8.702;2022-09-14T14:37:43;5.38;;;1.85;;
44462;SDS011;30170;52.190;8.702;2022-09-14T14:40:10;2.83;;;1.73;;
44462;SDS011;30170;52.190;8.702;2022-09-14T14:42:39;4.53;;;1.73;;
44462;SDS011;30170;52.190;8.702;2022-09-14T14:45:11;5.38;;;1.40;;
44462;SDS011;30170;52.190;8.702;2022-09-14T14:47:40;7.35;;;1.30;;
44462;SDS011;30170;52.190;8.702;2022-09-14T14:50:13;4.13;;;1.40;;
44462;SDS011;30170;52.190;8.702;2022-09-14T14:52:42;6.47;;;1.50;;
44462;SDS011;30170;52.190;8.702;2022-09-14T14:55:09;8.27;;;2.28;;
44462;SDS011;30170;52.190;8.702;2022-09-14T14:57:36;4.47;;;1.58;;
44462;SDS011;30170;52.190;8.702;2022-09-14T15:00:09;2.65;;;1.30;;
44462;SDS011;30170;52.190;8.702;2022-09-14T15:02:39;6.85;;;1.55;;
44462;SDS011;30170;52.190;8.702;2022-09-14T15:05:06;4.43;;;1.50;;
44462;SDS011;30170;52.190;8.702;2022-09-14T15:07:33;4.55;;;1.15;;
44462;SDS011;30170;52.190;8.702;2022-09-14T15:10:03;4.32;;;1.38;;
44462;SDS011;30170;52.190;8.702;2022-09-14T15:12:30;2.85;;;1.00;;
44462;SDS011;30170;52.190;8.702;2022-09-14T15:14:58;3.78;;;1.42;;
44462;SDS011;30170;52.190;8.702;2022-09-14T15:17:25;4.00;;;1.00;;
44462;SDS011;30170;52.190;8.702;2022-09-14T15:19:52;2.63;;;1.10;;
44462;SDS011;30170;52.190;8.702;2022-09-14T15:22:19;5.70;;;1.40;;
44462;SDS011;30170;52.190;8.702;2022-09-14T15:24:46;2.80;;;1.10;;
44462;SDS011;30170;52.190;8.702;2022-09-14T15:27:13;3.40;;;1.20;;
44462;SDS011;30170;52.190;8.702;2022-09-14T15:29:40;3.38;;;1.30;;
44462;SDS011;30170;52.190;8.702;2022-09-14T15:32:06;3.60;;;1.40;;
44462;SDS011;30170;52.190;8.702;2022-09-14T15:34:33;3.22;;;1.30;;
44462;SDS011;30170;52.190;8.702;2022-09-14T15:37:00;5.75;;;1.45;;
44462;SDS011;30170;52.190;8.702;2022-09-14T15:39:28;2.78;;;1.20;;
44462;SDS011;30170;52.190;8.702;2022-09-14T15:41:56;5.30;;;1.63;;
44462;SDS011;30170;52.190;8.702;2022-09-14T15:44:23;7.20;;;1.60;;
44462;SDS011;30170;52.190;8.702;2022-09-14T15:46:50;4.72;;;1.75;;
44462;SDS011;30170;52.190;8.702;2022-09-14T15:49:21;3.60;;;1.33;;
44462;SDS011;30170;52.190;8.702;2022-09-14T15:51:50;4.75;;;1.70;;
44462;SDS011;30170;52.190;8.702;2022-09-14T15:54:19;4.13;;;1.38;;
44462;SDS011;30170;52.190;8.702;2022-09-14T15:56:48;3.67;;;1.30;;
44462;SDS011;30170;52.190;8.702;2022-09-14T15:59:19;4.03;;;1.60;;
44462;SDS011;30170;52.190;8.702;2022-09-14T16:01:46;2.53;;;1.17;;
44462;SDS011;30170;52.190;8.702;2022-09-14T16:04:14;5.13;;;1.60;;
44462;SDS011;30170;52.190;8.702;2022-09-14T16:06:42;4.93;;;1.33;;
44462;SDS011;30170;52.190;8.702;2022-09-14T16:09:10;2.58;;;1.35;;
44462;SDS011;30170;52.190;8.702;2022-09-14T16:11:38;4.93;;;1.52;;
44462;SDS011;30170;52.190;8.702;2022-09-14T16:14:06;4.57;;;1.30;;
44462;SDS011;30170;52.190;8.702;2022-09-14T16:16:34;3.58;;;1.20;;
44462;SDS011;30170;52.190;8.702;2022-09-14T16:19:06;3.03;;;1.48;;
44462;SDS011;30170;52.190;8.702;2022-09-14T16:24:02;4.07;;;1.80;;
44462;SDS011;30170;52.190;8.702;2022-09-14T16:26:31;3.63;;;1.30;;
44462;SDS011;30170;52.190;8.702;2022-09-14T16:29:00;3.35;;;2.10;;
44462;SDS011;30170;52.190;8.702;2022-09-14T16:31:28;4.32;;;1.42;;
44462;SDS011;30170;52.190;8.702;2022-09-14T16:33:58;4.45;;;1.13;;
44462;SDS011;30170;52.190;8.702;2022-09-14T16:36:28;2.65;;;1.58;;
44462;SDS011;30170;52.190;8.702;2022-09-14T16:38:58;5.07;;;1.40;;
44462;SDS011;30170;52.190;8.702;2022-09-14T16:41:27;2.80;;;1.30;;
44462;SDS011;30170;52.190;8.702;2022-09-14T16:43:57;2.50;;;1.13;;
44462;SDS011;30170;52.190;8.702;2022-09-14T16:46:26;2.83;;;1.10;;
44462;SDS011;30170;52.190;8.702;2022-09-14T16:48:55;4.03;;;1.23;;
44462;SDS011;30170;52.190;8.702;2022-09-14T16:51:25;1.92;;;1.20;;
44462;SDS011;30170;52.190;8.702;2022-09-14T16:53:53;3.10;;;1.40;;
44462;SDS011;30170;52.190;8.702;2022-09-14T16:56:24;6.28;;;1.60;;
44462;SDS011;30170;52.190;8.702;2022-09-14T16:59:02;2.20;;;1.20;;
44462;SDS011;30170;52.190;8.702;2022-09-14T17:01:31;3.67;;;1.85;;
44462;SDS011;30170;52.190;8.702;2022-09-14T17:04:01;2.22;;;1.10;;
44462;SDS011;30170;52.190;8.702;2022-09-14T17:06:30;4.10;;;1.35;;
44462;SDS011;30170;52.190;8.702;2022-09-14T17:08:59;5.18;;;1.27;;
44462;SDS011;30170;52.190;8.702;2022-09-14T17:11:29;3.05;;;1.30;;
44462;SDS011;30170;52.190;8.702;2022-09-14T17:13:58;2.90;;;1.20;;
44462;SDS011;30170;52.190;8.702;2022-09-14T17:16:26;4.32;;;1.40;;
44462;SDS011;30170;52.190;8.702;2022-09-14T17:18:56;2.53;;;1.17;;
44462;SDS011;30170;52.190;8.702;2022-09-14T17:21:25;2.83;;;1.35;;
44462;SDS011;30170;52.190;8.702;2022-09-14T17:24:01;2.25;;;1.45;;
44462;SDS011;30170;52.190;8.702;2022-09-14T17:26:29;2.88;;;1.27;;
44462;SDS011;30170;52.190;8.702;2022-09-14T17:28:57;3.70;;;1.58;;
44462;SDS011;30170;52.190;8.702;2022-09-14T17:31:25;3.70;;;1.30;;
44462;SDS011;30170;52.190;8.702;2022-09-14T17:33:55;2.50;;;1.08;;
44462;SDS011;30170;52.190;8.702;2022-09-14T17:36:23;2.40;;;1.27;;
44462;SDS011;30170;52.190;8.702;2022-09-14T17:38:50;5.00;;;1.90;;
44462;SDS011;30170;52.190;8.702;2022-09-14T17:41:20;3.40;;;1.48;;
44462;SDS011;30170;52.190;8.702;2022-09-14T17:43:49;4.63;;;1.58;;
44462;SDS011;30170;52.190;8.702;2022-09-14T17:46:20;2.40;;;1.33;;
44462;SDS011;30170;52.190;8.702;2022-09-14T17:48:48;4.72;;;1.25;;
44462;SDS011;30170;52.190;8.702;2022-09-14T17:51:18;3.65;;;1.45;;
44462;SDS011;30170;52.190;8.702;2022-09-14T17:53:50;3.03;;;1.38;;
44462;SDS011;30170;52.190;8.702;2022-09-14T17:56:20;2.38;;;1.25;;
44462;SDS011;30170;52.190;8.702;2022-09-14T17:58:49;2.85;;;1.13;;